aviador You're here:

LKCV Decoded Metar

CASLAV in CZECH REPUBLIC
Report Time2017-08-24 06:00:00
UTC Time2017-08-24 07:00:00
Flight Rules vfr VFR
WindVRB at 01 kt
Visibility9999 m
Phenomena:N/A
Clouds:N/A
Expected CloudBase > 1,200 ft AGL from Temp-Dew spread
CeilingNone
Temp12°C (ISA -1)
Dew Point09°C (82% RH)
AAT11.4°C
QNH1017 hPa
Density Alt646 ft
Elevation794 ft
Report Wrong Elevation
Raw Report
LKCV 240600Z VRB01KT CAVOK 12/09 Q1017 NOSIG RMK BLU+ BLU=

Extra information for LKCV:More info

Metar Taf Metar & Taf Last 4 Metars F.Rules Stats Wind Profile Meteogram Temp Stats Airport Information Weather charts Add Link Nearby VenuesMetar ALERT Operation Metar Decoded Social comments